Vasiliy Bozhenko — URHP — position and weather

sailwx.info

Track history (hours):
 
Tides and Currents Weather Stations Pressure Air Temp Water Temp Dewpoint Dewpoint Depression Visibility Wind Speed Wind Dir Waves Ship Positions

Vasiliy Bozhenko

Last reported at 2017-Mar-21 03:20 UTC. Time now 2017-Mar-25 02:00 UTC.
Position N 46°24' E 030°55'.

Length 114 m; draft 3.9 m.

Type: Cargo ship. MMSI: 272085000.

Date/timePositionNaut miles runAvg speedWind from/ knotsBaromVisibWave heightAir tempDewpointWater temp
2017-Mar-21 03:20N 46°24' E 030°55'6 7.5
2017-Mar-21 02:32N 46°30' E 030°55'33 6.7
2017-Mar-20 21:33N 46°36' E 031°43'7 7.5
2017-Mar-20 20:33N 46°34' E 031°54'8 7.6
2017-Mar-20 19:33N 46°32' E 032°04'8 7.8
2017-Mar-20 18:33N 46°33' E 032°15'  
2017-Mar-17 12:11N 47°34' E 035°01'3 5.2
2017-Mar-17 11:32N 47°37' E 035°03'6 6.5
2017-Mar-17 10:33N 47°43' E 035°08'6 6.5
2017-Mar-17 09:33N 47°49' E 035°08'3 3.3
2017-Mar-17 08:33N 47°52' E 035°06'1 0.6
2017-Mar-17 07:31N 47°52' E 035°06'1 0.5
2017-Mar-17 06:32N 47°52' E 035°06'0 0.0
2017-Mar-17 05:28N 47°52' E 035°06'0 0.0
2017-Mar-17 04:28N 47°52' E 035°06'0 0.0
2017-Mar-17 03:28N 47°52' E 035°06'0 0.0
2017-Mar-17 02:28N 47°52' E 035°06'0 0.0
2017-Mar-17 01:29N 47°52' E 035°06'0 0.0
2017-Mar-17 00:29N 47°52' E 035°06'0 0.0
2017-Mar-16 23:29N 47°52' E 035°06'0 0.0
2017-Mar-16 22:29N 47°52' E 035°06'0 0.0
2017-Mar-16 21:29N 47°52' E 035°06'0 0.0
2017-Mar-16 20:24N 47°52' E 035°06'0 0.0
2017-Mar-16 19:29N 47°52' E 035°06'0 0.0
2017-Mar-16 18:32N 47°52' E 035°06'0 0.0
2017-Mar-16 17:33N 47°52' E 035°06'0 0.0
2017-Mar-16 16:30N 47°52' E 035°06'0 0.0
2017-Mar-16 15:30N 47°52' E 035°06'0 0.0
2017-Mar-16 14:30N 47°52' E 035°06'0 0.0
2017-Mar-16 13:30N 47°52' E 035°06'0 0.0
2017-Mar-16 12:30N 47°52' E 035°06'0 0.0
2017-Mar-16 11:30N 47°52' E 035°06'0 0.0
2017-Mar-16 10:30N 47°52' E 035°06'0 0.0
2017-Mar-16 09:33N 47°52' E 035°06'0 0.0
2017-Mar-16 08:33N 47°52' E 035°06'0 0.0
2017-Mar-16 07:33N 47°52' E 035°06'0 0.0
2017-Mar-16 06:33N 47°52' E 035°06'0 0.0
2017-Mar-16 05:28N 47°52' E 035°06'0 0.0
2017-Mar-16 04:28N 47°52' E 035°06'0 0.0
2017-Mar-16 03:28N 47°52' E 035°06'0 0.0
2017-Mar-16 02:29N 47°52' E 035°06'0 0.0
2017-Mar-16 01:29N 47°52' E 035°06'0 0.0
2017-Mar-16 00:29N 47°52' E 035°06'0 0.0
2017-Mar-15 23:29N 47°52' E 035°06'0 0.0
2017-Mar-15 22:29N 47°52' E 035°06'0 0.0
2017-Mar-15 21:30N 47°52' E 035°06'0 0.0
2017-Mar-15 20:30N 47°52' E 035°06'0 0.0
2017-Mar-15 19:30N 47°52' E 035°06'0 0.0
2017-Mar-15 18:31N 47°52' E 035°06'0 0.0
2017-Mar-15 17:29N 47°52' E 035°06'0 0.0
2017-Mar-15 16:33N 47°52' E 035°06'0 0.0
2017-Mar-15 15:27N 47°52' E 035°06'0 0.0
2017-Mar-15 14:30N 47°52' E 035°06'0 0.0
2017-Mar-15 13:30N 47°52' E 035°06'0 0.0
2017-Mar-15 12:30N 47°52' E 035°06'0 0.0
2017-Mar-15 11:30N 47°52' E 035°06'0 0.0
2017-Mar-15 10:32N 47°52' E 035°06'0 0.0
2017-Mar-15 09:31N 47°52' E 035°06'0 0.0
2017-Mar-15 08:32N 47°52' E 035°06'0 0.0
2017-Mar-15 07:23N 47°52' E 035°06'0 0.0
2017-Mar-15 06:31N 47°52' E 035°06'0 0.0
2017-Mar-15 05:31N 47°52' E 035°06'0 0.0
2017-Mar-15 04:31N 47°52' E 035°06'0 0.0
2017-Mar-15 03:30N 47°52' E 035°06'0 0.0
2017-Mar-15 02:32N 47°52' E 035°06'0 0.0
2017-Mar-15 01:28N 47°52' E 035°06'0 0.0
2017-Mar-15 00:28N 47°52' E 035°06'0 0.0
2017-Mar-14 23:28N 47°52' E 035°06'0 0.0
2017-Mar-14 22:28N 47°52' E 035°06'0 0.0
2017-Mar-14 21:28N 47°52' E 035°06'0 0.0
2017-Mar-14 20:32N 47°52' E 035°06'0 0.0
2017-Mar-14 19:19N 47°52' E 035°06'0 0.0
2017-Mar-14 18:30N 47°52' E 035°06'0 0.0
2017-Mar-14 17:30N 47°52' E 035°06'0 0.0
2017-Mar-14 16:30N 47°52' E 035°06'0 0.0
2017-Mar-14 15:30N 47°52' E 035°06'0 0.0
2017-Mar-14 14:33N 47°52' E 035°06'0 0.1
2017-Mar-14 13:33N 47°52' E 035°06'0 0.1
2017-Mar-14 12:33N 47°52' E 035°06'0 0.4
2017-Mar-14 11:34N 47°52' E 035°06'0 0.3
2017-Mar-14 10:33N 47°52' E 035°06'2 2.5
2017-Mar-14 09:33N 47°50' E 035°07'6 6.2
2017-Mar-14 08:34N 47°44' E 035°10'7 6.8
2017-Mar-14 07:32N 47°38' E 035°04'135 3.2
2017-Mar-12 13:33N 46°32' E 032°11'7 7.0
2017-Mar-12 12:33N 46°33' E 032°01'7 7.4
2017-Mar-12 11:33N 46°35' E 031°50'37 6.7
2017-Mar-12 06:06N 46°32' E 030°57'3 5.2
2017-Mar-12 05:33N 46°30' E 030°57'  
Track history (hours):
 
Tides and Currents Weather Stations Pressure Air Temp Water Temp Dewpoint Dewpoint Depression Visibility Wind Speed Wind Dir Waves Ship Positions

Vasiliy Bozhenko

Last reported at 2017-Mar-21 03:20 UTC. Time now 2017-Mar-25 02:00 UTC.
Position N 46°24' E 030°55'.

Length 114 m; draft 3.9 m.

Type: Cargo ship. MMSI: 272085000.

Date/timePositionNaut miles runAvg speedWind from/ knotsBaromVisibWave heightAir tempDewpointWater temp
2017-Mar-21 03:20N 46°24' E 030°55'6 7.5
2017-Mar-21 02:32N 46°30' E 030°55'33 6.7
2017-Mar-20 21:33N 46°36' E 031°43'7 7.5
2017-Mar-20 20:33N 46°34' E 031°54'8 7.6
2017-Mar-20 19:33N 46°32' E 032°04'8 7.8
2017-Mar-20 18:33N 46°33' E 032°15'  
2017-Mar-17 12:11N 47°34' E 035°01'3 5.2
2017-Mar-17 11:32N 47°37' E 035°03'6 6.5
2017-Mar-17 10:33N 47°43' E 035°08'6 6.5
2017-Mar-17 09:33N 47°49' E 035°08'3 3.3
2017-Mar-17 08:33N 47°52' E 035°06'1 0.6
2017-Mar-17 07:31N 47°52' E 035°06'1 0.5
2017-Mar-17 06:32N 47°52' E 035°06'0 0.0
2017-Mar-17 05:28N 47°52' E 035°06'0 0.0
2017-Mar-17 04:28N 47°52' E 035°06'0 0.0
2017-Mar-17 03:28N 47°52' E 035°06'0 0.0
2017-Mar-17 02:28N 47°52' E 035°06'0 0.0
2017-Mar-17 01:29N 47°52' E 035°06'0 0.0
2017-Mar-17 00:29N 47°52' E 035°06'0 0.0
2017-Mar-16 23:29N 47°52' E 035°06'0 0.0
2017-Mar-16 22:29N 47°52' E 035°06'0 0.0
2017-Mar-16 21:29N 47°52' E 035°06'0 0.0
2017-Mar-16 20:24N 47°52' E 035°06'0 0.0
2017-Mar-16 19:29N 47°52' E 035°06'0 0.0
2017-Mar-16 18:32N 47°52' E 035°06'0 0.0
2017-Mar-16 17:33N 47°52' E 035°06'0 0.0
2017-Mar-16 16:30N 47°52' E 035°06'0 0.0
2017-Mar-16 15:30N 47°52' E 035°06'0 0.0
2017-Mar-16 14:30N 47°52' E 035°06'0 0.0
2017-Mar-16 13:30N 47°52' E 035°06'0 0.0
2017-Mar-16 12:30N 47°52' E 035°06'0 0.0
2017-Mar-16 11:30N 47°52' E 035°06'0 0.0
2017-Mar-16 10:30N 47°52' E 035°06'0 0.0
2017-Mar-16 09:33N 47°52' E 035°06'0 0.0
2017-Mar-16 08:33N 47°52' E 035°06'0 0.0
2017-Mar-16 07:33N 47°52' E 035°06'0 0.0
2017-Mar-16 06:33N 47°52' E 035°06'0 0.0
2017-Mar-16 05:28N 47°52' E 035°06'0 0.0
2017-Mar-16 04:28N 47°52' E 035°06'0 0.0
2017-Mar-16 03:28N 47°52' E 035°06'0 0.0
2017-Mar-16 02:29N 47°52' E 035°06'0 0.0
2017-Mar-16 01:29N 47°52' E 035°06'0 0.0
2017-Mar-16 00:29N 47°52' E 035°06'0 0.0
2017-Mar-15 23:29N 47°52' E 035°06'0 0.0
2017-Mar-15 22:29N 47°52' E 035°06'0 0.0
2017-Mar-15 21:30N 47°52' E 035°06'0 0.0
2017-Mar-15 20:30N 47°52' E 035°06'0 0.0
2017-Mar-15 19:30N 47°52' E 035°06'0 0.0
2017-Mar-15 18:31N 47°52' E 035°06'0 0.0
2017-Mar-15 17:29N 47°52' E 035°06'0 0.0
2017-Mar-15 16:33N 47°52' E 035°06'0 0.0
2017-Mar-15 15:27N 47°52' E 035°06'0 0.0
2017-Mar-15 14:30N 47°52' E 035°06'0 0.0
2017-Mar-15 13:30N 47°52' E 035°06'0 0.0
2017-Mar-15 12:30N 47°52' E 035°06'0 0.0
2017-Mar-15 11:30N 47°52' E 035°06'0 0.0
2017-Mar-15 10:32N 47°52' E 035°06'0 0.0
2017-Mar-15 09:31N 47°52' E 035°06'0 0.0
2017-Mar-15 08:32N 47°52' E 035°06'0 0.0
2017-Mar-15 07:23N 47°52' E 035°06'0 0.0
2017-Mar-15 06:31N 47°52' E 035°06'0 0.0
2017-Mar-15 05:31N 47°52' E 035°06'0 0.0
2017-Mar-15 04:31N 47°52' E 035°06'0 0.0
2017-Mar-15 03:30N 47°52' E 035°06'0 0.0
2017-Mar-15 02:32N 47°52' E 035°06'0 0.0
2017-Mar-15 01:28N 47°52' E 035°06'0 0.0
2017-Mar-15 00:28N 47°52' E 035°06'0 0.0
2017-Mar-14 23:28N 47°52' E 035°06'0 0.0
2017-Mar-14 22:28N 47°52' E 035°06'0 0.0
2017-Mar-14 21:28N 47°52' E 035°06'0 0.0
2017-Mar-14 20:32N 47°52' E 035°06'0 0.0
2017-Mar-14 19:19N 47°52' E 035°06'0 0.0
2017-Mar-14 18:30N 47°52' E 035°06'0 0.0
2017-Mar-14 17:30N 47°52' E 035°06'0 0.0
2017-Mar-14 16:30N 47°52' E 035°06'0 0.0
2017-Mar-14 15:30N 47°52' E 035°06'0 0.0
2017-Mar-14 14:33N 47°52' E 035°06'0 0.1
2017-Mar-14 13:33N 47°52' E 035°06'0 0.1
2017-Mar-14 12:33N 47°52' E 035°06'0 0.4
2017-Mar-14 11:34N 47°52' E 035°06'0 0.3
2017-Mar-14 10:33N 47°52' E 035°06'2 2.5
2017-Mar-14 09:33N 47°50' E 035°07'6 6.2
2017-Mar-14 08:34N 47°44' E 035°10'7 6.8
2017-Mar-14 07:32N 47°38' E 035°04'135 3.2
2017-Mar-12 13:33N 46°32' E 032°11'7 7.0
2017-Mar-12 12:33N 46°33' E 032°01'7 7.4
2017-Mar-12 11:33N 46°35' E 031°50'37 6.7
2017-Mar-12 06:06N 46°32' E 030°57'3 5.2
2017-Mar-12 05:33N 46°30' E 030°57'  

Dump ship's entire track history